Time;durP1;ratioP1;P1;durP2;ratioP2;P2;SDS_P1;SDS_P2;PMS_P1;PMS_P2;Temp;Humidity;BMP_temperature;BMP_pressure;BME280_temperature;BME280_humidity;BME280_pressure;Samples;Min_cycle;Max_cycle;Signal;HPM_P1;HPM_P2
2023/10/08 00:01:42;;;;;;;3.97;0.68;;;;;;;10.42;60.92;102212.50;4921705;28;20181;-72
2023/10/08 00:04:10;;;;;;;4.00;0.30;;;;;;;10.46;60.60;102226.38;4935229;28;20044;-72
2023/10/08 00:06:37;;;;;;;4.70;0.52;;;;;;;10.38;60.62;102242.19;4926434;28;20038;-72
2023/10/08 00:09:08;;;;;;;2.00;0.40;;;;;;;10.39;60.96;102243.91;4918454;28;20348;-72
2023/10/08 00:11:37;;;;;;;1.67;0.90;;;;;;;10.41;61.00;102259.56;4920072;28;20473;-72
2023/10/08 00:14:08;;;;;;;5.18;0.45;;;;;;;10.42;61.17;102267.38;4920674;28;20059;-72
2023/10/08 00:16:34;;;;;;;4.93;1.08;;;;;;;10.39;60.69;102271.78;4934217;28;20129;-72
2023/10/08 00:19:02;;;;;;;11.13;0.93;;;;;;;10.35;60.62;102280.59;4918598;28;20383;-72
2023/10/08 00:21:31;;;;;;;3.03;0.25;;;;;;;10.37;60.56;102274.44;4910730;28;20039;-72
2023/10/08 00:23:59;;;;;;;6.32;0.30;;;;;;;10.25;60.82;102271.16;4917028;28;20035;-72
2023/10/08 00:26:39;;;;;;;6.47;0.60;;;;;;;10.15;60.69;102268.69;4920633;28;20156;-72
2023/10/08 00:29:06;;;;;;;3.92;0.30;;;;;;;10.13;60.91;102267.88;4920063;28;21001;-72
2023/10/08 00:31:40;;;;;;;8.93;0.30;;;;;;;10.22;60.24;102272.94;4922372;28;20073;-72
2023/10/08 00:34:08;;;;;;;10.00;1.08;;;;;;;10.02;60.43;102280.22;4918008;28;21821;-72
2023/10/08 00:36:37;;;;;;;7.00;0.38;;;;;;;10.13;60.34;102283.53;4934935;28;20024;-72
2023/10/08 00:39:08;;;;;;;8.93;0.32;;;;;;;9.93;60.16;102294.28;4931838;28;20055;-72
2023/10/08 00:41:33;;;;;;;8.00;1.37;;;;;;;9.91;60.04;102297.81;4920747;28;20079;-73
2023/10/08 00:44:00;;;;;;;2.88;0.20;;;;;;;9.97;59.72;102297.72;4930315;28;20602;-73
2023/10/08 00:46:32;;;;;;;3.60;0.40;;;;;;;10.08;59.24;102289.72;4920101;28;20023;-72
2023/10/08 00:49:18;;;;;;;2.55;0.40;;;;;;;10.26;58.75;102283.31;4917662;28;20392;-72
2023/10/08 00:51:45;;;;;;;2.28;0.22;;;;;;;10.32;58.24;102283.22;4934928;28;20032;-73
2023/10/08 00:54:17;;;;;;;8.45;0.40;;;;;;;10.21;58.88;102297.34;4921980;28;20082;-73
2023/10/08 00:56:53;;;;;;;7.43;0.20;;;;;;;10.19;58.31;102282.56;4918371;28;20036;-73
2023/10/08 00:59:20;;;;;;;7.53;0.65;;;;;;;10.18;58.49;102286.94;4917651;28;20471;-72
2023/10/08 01:02:05;;;;;;;4.93;0.35;;;;;;;10.16;58.41;102283.47;4919402;28;20134;-73
2023/10/08 01:04:33;;;;;;;1.92;0.20;;;;;;;10.27;58.48;102282.44;4938019;28;20074;-73
2023/10/08 01:07:10;;;;;;;2.17;0.20;;;;;;;10.25;58.15;102286.84;4923828;28;20426;-73
2023/10/08 01:09:37;;;;;;;3.70;0.15;;;;;;;10.18;58.52;102276.47;4936214;28;20039;-73
2023/10/08 01:12:21;;;;;;;2.40;0.10;;;;;;;10.15;58.43;102258.25;4917604;28;20099;-73
2023/10/08 01:14:49;;;;;;;5.35;1.05;;;;;;;10.15;58.14;102265.22;4891027;28;20134;-74
2023/10/08 01:17:16;;;;;;;2.10;0.32;;;;;;;10.11;58.38;102251.34;4909507;28;20031;-73
2023/10/08 01:19:45;;;;;;;1.85;0.20;;;;;;;10.17;58.70;102264.31;4934284;28;20046;-72
2023/10/08 01:22:21;;;;;;;1.83;0.30;;;;;;;10.22;58.42;102269.47;4916221;28;20085;-72
2023/10/08 01:24:51;;;;;;;3.60;0.80;;;;;;;10.32;58.27;102270.16;4912843;28;20239;-73
2023/10/08 01:27:27;;;;;;;5.28;0.20;;;;;;;10.34;58.19;102271.88;4918662;28;20034;-74
2023/10/08 01:29:53;;;;;;;3.60;0.10;;;;;;;10.37;58.32;102273.56;4928835;28;20055;-73
2023/10/08 01:32:23;;;;;;;6.63;0.20;;;;;;;10.39;58.32;102280.50;4921182;28;20027;-73
2023/10/08 01:34:49;;;;;;;4.05;0.10;;;;;;;10.41;58.44;102268.28;4935933;28;20079;-75
2023/10/08 01:37:19;;;;;;;3.63;0.40;;;;;;;10.42;58.26;102276.97;4917577;28;20065;-73
2023/10/08 01:39:45;;;;;;;2.72;0.20;;;;;;;10.42;58.14;102261.28;4898915;28;20058;-73
2023/10/08 01:42:23;;;;;;;4.00;0.15;;;;;;;10.40;58.27;102268.28;4918038;28;20051;-74
2023/10/08 01:44:55;;;;;;;1.92;0.22;;;;;;;10.40;58.36;102266.53;4933221;28;20147;-73
2023/10/08 01:47:20;;;;;;;6.25;0.38;;;;;;;10.31;58.11;102284.13;4924337;28;20695;-74
2023/10/08 01:49:46;;;;;;;4.53;0.43;;;;;;;10.25;58.13;102282.47;4934562;28;20079;-73
2023/10/08 01:52:21;;;;;;;4.55;0.20;;;;;;;10.24;58.27;102279.91;4917743;28;20492;-74
2023/10/08 01:54:49;;;;;;;8.82;0.40;;;;;;;10.19;58.26;102273.00;4920596;28;20051;-75
2023/10/08 01:57:16;;;;;;;5.68;0.77;;;;;;;10.16;58.64;102286.09;4915422;28;20122;-76
2023/10/08 01:59:44;;;;;;;3.63;0.40;;;;;;;10.19;58.10;102295.63;4922186;28;20059;-75
2023/10/08 02:02:10;;;;;;;2.95;0.17;;;;;;;10.23;57.82;102289.47;4916288;28;20577;-75
2023/10/08 02:04:36;;;;;;;4.57;0.63;;;;;;;10.17;57.99;102295.66;4909558;28;20532;-77
2023/10/08 02:07:07;;;;;;;3.40;0.47;;;;;;;10.16;58.02;102303.53;4915958;28;20411;-76
2023/10/08 02:09:34;;;;;;;8.80;0.30;;;;;;;10.13;57.89;102291.38;4922657;28;20063;-76
2023/10/08 02:12:00;;;;;;;3.03;0.50;;;;;;;10.12;58.33;102276.56;4913401;28;20483;-75
2023/10/08 02:14:25;;;;;;;3.50;0.30;;;;;;;10.13;58.57;102288.75;4912911;28;20051;-78
2023/10/08 02:16:55;;;;;;;8.85;0.43;;;;;;;10.22;58.24;102292.97;4917774;28;20042;-77
2023/10/08 02:19:26;;;;;;;6.22;0.43;;;;;;;10.22;58.41;102304.28;4916622;28;20570;-76
2023/10/08 02:21:55;;;;;;;2.63;0.43;;;;;;;10.26;58.24;102322.53;4919486;28;20395;-77
2023/10/08 02:24:25;;;;;;;2.78;0.65;;;;;;;10.19;58.25;102314.81;4919094;28;20228;-77
2023/10/08 02:26:55;;;;;;;2.92;0.52;;;;;;;10.17;58.28;102320.94;4932853;28;20078;-76
2023/10/08 02:29:29;;;;;;;5.72;0.75;;;;;;;10.12;58.04;102318.38;4919344;28;20130;-75
2023/10/08 02:31:55;;;;;;;5.38;0.20;;;;;;;10.09;58.04;102328.03;4904619;28;20095;-76
2023/10/08 02:34:21;;;;;;;1.60;0.10;;;;;;;10.07;58.20;102330.66;4917561;28;20400;-76
2023/10/08 02:36:47;;;;;;;9.10;0.22;;;;;;;10.11;58.27;102331.47;4917262;28;20046;-72
2023/10/08 02:39:13;;;;;;;7.18;0.20;;;;;;;10.08;58.13;102337.63;4930034;28;20158;-72
2023/10/08 02:41:45;;;;;;;3.33;0.25;;;;;;;10.05;58.06;102340.25;4920413;28;20430;-72
2023/10/08 02:44:13;;;;;;;2.13;0.10;;;;;;;10.03;58.16;102334.19;4902696;28;20111;-72
2023/10/08 02:46:44;;;;;;;6.32;0.30;;;;;;;10.03;58.17;102339.41;4935080;28;20050;-72
2023/10/08 02:49:11;;;;;;;3.65;0.75;;;;;;;10.11;58.31;102327.09;4915367;28;20459;-72
2023/10/08 02:51:41;;;;;;;1.73;0.40;;;;;;;10.12;58.09;102320.97;4916857;28;20036;-72
2023/10/08 02:54:14;;;;;;;1.42;0.10;;;;;;;10.15;58.02;102320.97;4915893;28;20047;-72
2023/10/08 02:56:44;;;;;;;6.60;0.20;;;;;;;10.16;58.14;102329.66;4906176;28;20134;-72
2023/10/08 02:59:12;;;;;;;2.95;0.17;;;;;;;10.22;58.26;102324.34;4913790;28;20051;-72
2023/10/08 03:01:42;;;;;;;2.97;0.30;;;;;;;10.20;58.04;102342.66;4918247;28;20032;-72
2023/10/08 03:04:19;;;;;;;6.45;0.40;;;;;;;10.15;57.67;102352.31;4899867;28;20102;-73
2023/10/08 03:06:55;;;;;;;1.00;0.20;;;;;;;10.11;58.10;102363.69;4917660;28;20497;-73
2023/10/08 03:09:24;;;;;;;3.83;0.20;;;;;;;10.07;58.21;102372.44;4906019;28;20039;-72
2023/10/08 03:11:51;;;;;;;0.65;0.10;;;;;;;10.09;58.26;102375.91;4916363;28;20035;-72
2023/10/08 03:14:26;;;;;;;4.95;0.60;;;;;;;10.10;58.21;102388.09;4915612;28;20051;-73
2023/10/08 03:16:53;;;;;;;5.63;0.52;;;;;;;10.07;58.22;102395.09;4931878;28;20042;-73
2023/10/08 03:19:22;;;;;;;4.53;0.20;;;;;;;10.06;58.05;102399.47;4912460;28;20429;-73
2023/10/08 03:21:50;;;;;;;1.58;0.20;;;;;;;10.05;58.04;102395.09;4918993;28;20059;-75
2023/10/08 03:24:29;;;;;;;3.35;0.82;;;;;;;9.99;58.11;102377.78;4903765;28;20046;-75
2023/10/08 03:29:58;;;;;;;4.93;0.10;;;;;;;9.89;58.21;102363.13;4919623;28;20051;-76
2023/10/08 03:32:26;;;;;;;1.70;0.20;;;;;;;9.96;58.36;102369.13;4921543;28;20482;-76
2023/10/08 03:34:54;;;;;;;3.78;0.10;;;;;;;10.03;58.48;102378.59;4915226;28;20534;-76
2023/10/08 03:37:29;;;;;;;1.15;0.10;;;;;;;10.05;58.23;102383.81;4913150;28;20531;-76
2023/10/08 03:40:07;;;;;;;6.15;0.20;;;;;;;9.94;58.21;102395.25;4916435;28;20065;-72
2023/10/08 03:42:40;;;;;;;2.95;0.30;;;;;;;9.95;58.39;102383.94;4917374;28;20035;-73
2023/10/08 03:45:12;;;;;;;3.10;0.28;;;;;;;9.94;58.46;102381.34;4914845;28;20234;-73
2023/10/08 03:47:41;;;;;;;2.33;0.38;;;;;;;9.93;58.36;102385.69;4916206;28;20036;-71
2023/10/08 03:50:09;;;;;;;2.97;0.20;;;;;;;9.95;58.36;102393.53;4911829;28;20050;-71
2023/10/08 03:52:38;;;;;;;0.95;0.10;;;;;;;10.01;58.65;102401.25;4920331;28;20027;-73
2023/10/08 03:55:33;;;;;;;2.47;0.47;;;;;;;10.06;58.52;102422.97;4912185;28;20332;-75
2023/10/08 03:57:58;;;;;;;1.15;0.30;;;;;;;10.00;58.45;102417.81;4917277;28;20232;-73
2023/10/08 04:00:32;;;;;;;;;;;;;;;9.92;58.55;102417.94;4917628;28;20083;-72
2023/10/08 04:03:07;;;;;;;1.85;0.10;;;;;;;9.89;58.65;102404.91;4930156;28;19914;-69
2023/10/08 04:05:49;;;;;;;2.58;0.15;;;;;;;9.93;58.52;102426.63;4916133;28;20056;-69
2023/10/08 04:08:24;;;;;;;1.42;0.10;;;;;;;9.92;58.92;102431.00;4915118;28;20087;-70
2023/10/08 04:11:07;;;;;;;6.60;0.50;;;;;;;9.95;59.02;102435.31;4931115;28;20332;-69
2023/10/08 04:13:44;;;;;;;1.13;0.08;;;;;;;10.00;58.68;102433.50;4919351;28;20631;-69
2023/10/08 04:16:09;;;;;;;3.92;0.20;;;;;;;10.03;58.69;102428.22;4928287;28;21307;-69
2023/10/08 04:18:40;;;;;;;2.58;0.20;;;;;;;10.05;58.81;102430.81;4915487;28;20036;-69
2023/10/08 04:21:12;;;;;;;4.28;0.20;;;;;;;10.03;58.55;102443.91;4931894;28;20054;-74
2023/10/08 04:23:41;;;;;;;5.78;0.20;;;;;;;10.04;58.71;102440.41;4908680;28;20376;-71
2023/10/08 04:26:08;;;;;;;3.72;0.22;;;;;;;10.02;58.73;102448.25;4918512;28;20104;-71
2023/10/08 04:28:37;;;;;;;1.80;0.10;;;;;;;10.08;58.32;102459.50;4919548;28;20152;-71
2023/10/08 04:31:14;;;;;;;2.83;0.40;;;;;;;9.99;58.48;102468.31;4916585;28;20218;-71
2023/10/08 04:33:44;;;;;;;2.80;0.45;;;;;;;9.97;58.30;102463.13;4920655;28;20468;-71
2023/10/08 04:36:17;;;;;;;4.32;0.30;;;;;;;9.94;58.66;102467.53;4905474;28;20126;-70
2023/10/08 04:38:45;;;;;;;3.17;0.20;;;;;;;9.97;58.76;102483.19;4907987;28;20031;-71
2023/10/08 04:41:11;;;;;;;6.45;0.15;;;;;;;9.90;58.72;102473.66;4931930;28;20094;-73
2023/10/08 04:43:42;;;;;;;1.00;0.25;;;;;;;9.95;58.33;102466.66;4936822;28;20039;-74
2023/10/08 04:46:19;;;;;;;3.63;0.10;;;;;;;9.97;58.38;102464.91;4916696;28;20043;-71
2023/10/08 04:48:47;;;;;;;4.68;0.32;;;;;;;9.91;58.57;102472.78;4919884;28;20043;-70
2023/10/08 04:51:17;;;;;;;1.55;0.35;;;;;;;9.93;58.66;102473.66;4918626;28;20276;-72
2023/10/08 04:53:43;;;;;;;2.83;0.32;;;;;;;9.90;58.55;102476.28;4919400;28;20036;-72
2023/10/08 04:56:13;;;;;;;1.33;0.40;;;;;;;9.89;58.34;102479.78;4931772;28;20255;-74
2023/10/08 04:58:46;;;;;;;2.45;0.43;;;;;;;9.93;58.55;102473.66;4934953;28;20261;-72
2023/10/08 05:01:20;;;;;;;0.95;0.20;;;;;;;9.88;58.50;102472.81;4917398;28;21257;-73
2023/10/08 05:17:22;;;;;;;0.40;0.10;;;;;;;9.78;58.75;102470.28;4917437;28;20039;-72
2023/10/08 05:20:19;;;;;;;2.72;0.30;;;;;;;9.80;58.56;102467.69;4925814;28;20114;-70
2023/10/08 05:22:55;;;;;;;4.38;0.30;;;;;;;9.74;58.61;102471.19;4921753;28;20043;-70
2023/10/08 05:33:08;;;;;;;1.95;0.10;;;;;;;9.72;58.48;102480.81;4919743;28;20051;-75
2023/10/08 05:36:18;;;;;;;3.22;0.43;;;;;;;9.74;58.11;102486.84;4929398;28;20576;-72
2023/10/08 05:57:14;;;;;;;2.83;0.13;;;;;;;9.77;58.21;102502.50;4929005;28;20388;-74
2023/10/08 06:08:11;;;;;;;3.58;0.22;;;;;;;9.78;58.53;102483.34;4918036;28;20118;-69
2023/10/08 06:13:09;;;;;;;2.70;0.32;;;;;;;9.90;58.17;102495.44;4919083;28;20117;-72
2023/10/08 06:18:13;;;;;;;6.85;0.32;;;;;;;9.95;57.26;102509.31;4930833;28;20199;-69
2023/10/08 06:20:42;;;;;;;2.72;0.40;;;;;;;9.97;57.59;102506.69;4917750;28;20054;-70
2023/10/08 06:23:18;;;;;;;1.58;0.25;;;;;;;10.07;57.35;102503.06;4931323;28;20035;-70
2023/10/08 06:26:05;;;;;;;3.05;0.30;;;;;;;10.15;56.87;102506.47;4916964;28;20050;-72
2023/10/08 06:28:34;;;;;;;5.15;0.43;;;;;;;10.25;57.33;102511.56;4913801;28;20409;-71
2023/10/08 06:31:01;;;;;;;5.68;0.77;;;;;;;10.29;57.01;102521.97;4934090;28;20090;-70
2023/10/08 06:33:30;;;;;;;1.35;0.20;;;;;;;10.40;56.94;102521.84;4914226;28;20059;-71
2023/10/08 06:36:02;;;;;;;2.75;0.80;;;;;;;10.54;56.84;102522.50;4928826;28;20105;-70
2023/10/08 06:38:30;;;;;;;1.13;0.25;;;;;;;10.73;56.28;102537.97;4908317;28;20049;-72
2023/10/08 06:41:00;;;;;;;2.47;0.30;;;;;;;10.76;55.47;102536.16;4935490;28;20127;-74
2023/10/08 06:43:27;;;;;;;4.80;0.38;;;;;;;10.77;55.10;102539.63;4914444;28;20394;-73
2023/10/08 06:45:52;;;;;;;2.13;0.25;;;;;;;10.93;55.79;102543.78;4917653;28;20050;-73
2023/10/08 06:48:23;;;;;;;2.97;0.63;;;;;;;11.08;55.22;102536.59;4914407;28;20703;-71
2023/10/08 06:50:50;;;;;;;3.80;0.40;;;;;;;11.21;54.58;102544.22;4916477;28;20130;-73
2023/10/08 06:53:18;;;;;;;2.60;0.30;;;;;;;11.35;54.62;102544.00;4910025;28;20039;-71
2023/10/08 06:55:48;;;;;;;4.25;0.35;;;;;;;12.70;54.00;102544.03;4918758;28;20219;-73
2023/10/08 06:58:14;;;;;;;1.58;0.22;;;;;;;14.22;52.10;102541.94;4901039;28;20105;-72
2023/10/08 07:00:49;;;;;;;6.13;0.57;;;;;;;15.96;46.19;102550.38;4917286;28;20074;-74
2023/10/08 07:03:17;;;;;;;4.65;0.50;;;;;;;17.20;43.73;102552.66;4928385;28;20172;-73
2023/10/08 07:05:57;;;;;;;1.65;0.25;;;;;;;18.04;37.48;102537.56;4922215;28;20322;-73
2023/10/08 07:08:24;;;;;;;2.25;0.30;;;;;;;18.43;37.64;102541.97;4910817;28;20043;-74
2023/10/08 07:10:51;;;;;;;6.22;0.50;;;;;;;18.54;36.66;102548.53;4917015;28;20561;-73
2023/10/08 07:13:17;;;;;;;2.40;0.40;;;;;;;18.71;34.21;102551.25;4926183;28;20035;-71
2023/10/08 07:15:44;;;;;;;3.38;0.50;;;;;;;18.27;35.05;102551.53;4907556;28;20058;-70
2023/10/08 07:18:24;;;;;;;6.93;0.57;;;;;;;17.22;36.91;102566.66;4914194;28;20110;-72
2023/10/08 07:20:53;;;;;;;5.43;0.30;;;;;;;15.98;38.14;102569.63;4917715;28;20142;-71
2023/10/08 07:23:25;;;;;;;3.13;0.30;;;;;;;;;;4914163;28;20220;-70
2023/10/08 07:26:10;;;;;;;4.15;0.20;;;;;;;14.04;42.60;102558.25;4920493;28;20362;-71
2023/10/08 07:28:39;;;;;;;2.45;0.28;;;;;;;13.54;44.42;102577.06;4930658;28;20119;-70
2023/10/08 07:31:15;;;;;;;3.55;0.35;;;;;;;13.60;46.02;102576.06;4918843;28;20050;-69
2023/10/08 07:33:44;;;;;;;3.25;0.20;;;;;;;13.53;46.74;102584.06;4928317;28;20059;-68
2023/10/08 07:36:14;;;;;;;3.63;0.20;;;;;;;13.55;46.38;102586.66;4917367;28;20050;-68
2023/10/08 07:38:43;;;;;;;5.15;0.20;;;;;;;13.47;44.85;102578.09;4917288;28;20034;-69
2023/10/08 07:41:14;;;;;;;6.10;0.50;;;;;;;13.41;44.81;102578.28;4918348;28;20052;-67
2023/10/08 07:43:44;;;;;;;5.50;0.30;;;;;;;13.42;44.57;102583.47;4918850;28;20512;-68
2023/10/08 07:46:10;;;;;;;2.55;0.20;;;;;;;13.53;43.91;102584.06;4916114;28;20332;-67
2023/10/08 07:48:42;;;;;;;1.48;0.30;;;;;;;13.52;43.95;102589.38;4927503;28;20086;-70
2023/10/08 07:51:07;;;;;;;3.58;0.22;;;;;;;13.62;44.53;102592.66;4914916;28;20047;-69
2023/10/08 07:53:40;;;;;;;3.85;0.40;;;;;;;13.67;44.31;102590.75;4913167;28;20760;-69
2023/10/08 07:56:06;;;;;;;6.10;0.60;;;;;;;14.03;44.31;102595.94;4919391;28;20134;-69
2023/10/08 07:58:38;;;;;;;5.57;0.43;;;;;;;15.31;41.36;102603.59;4915721;28;20040;-68
2023/10/08 08:01:08;;;;;;;;;;;;;;;15.87;40.11;102598.16;4920047;28;20594;-69
2023/10/08 08:03:36;;;;;;;2.25;0.82;;;;;;;16.28;38.72;102616.06;4914362;28;21003;-69
2023/10/08 08:06:06;;;;;;;3.00;0.10;;;;;;;16.40;38.65;102624.41;4919814;28;20417;-69
2023/10/08 08:08:35;;;;;;;2.45;0.20;;;;;;;16.82;37.30;102618.47;4916662;28;20035;-68
2023/10/08 08:11:07;;;;;;;2.67;0.20;;;;;;;16.23;37.72;102629.44;4918235;28;20301;-68
2023/10/08 08:13:38;;;;;;;6.07;0.20;;;;;;;16.01;38.55;102637.25;4913855;28;20039;-70
2023/10/08 08:16:16;;;;;;;;;;;;;;;15.93;38.44;102642.78;4911609;28;20032;-69
2023/10/08 08:18:56;;;;;;;2.00;0.35;;;;;;;15.86;38.46;102643.88;4922641;28;19918;-70
2023/10/08 08:21:23;;;;;;;6.00;0.20;;;;;;;17.20;36.71;102642.50;4914013;28;20544;-69
2023/10/08 08:23:49;;;;;;;6.20;0.20;;;;;;;18.06;35.05;102632.75;4922342;28;21025;-70
2023/10/08 08:27:31;;;;;;;3.13;0.20;;;;;;;18.07;35.57;102639.75;4919353;28;20028;-70
2023/10/08 08:29:44;;;;;;;1.90;0.30;;;;;;;18.83;34.10;102629.25;4918543;28;20075;-68
2023/10/08 08:32:15;;;;;;;5.85;0.25;;;;;;;19.37;32.80;102626.66;4920738;28;20318;-69
2023/10/08 08:34:44;;;;;;;4.43;0.60;;;;;;;20.29;31.68;102625.47;4913780;28;20047;-68
2023/10/08 08:37:11;;;;;;;3.42;0.55;;;;;;;20.16;30.77;102628.84;4918098;28;20098;-68
2023/10/08 08:39:38;;;;;;;0.80;0.20;;;;;;;20.05;32.22;102632.06;4926299;28;20242;-68
2023/10/08 08:42:04;;;;;;;3.03;0.20;;;;;;;19.11;30.02;102628.81;4919855;28;20660;-68
2023/10/08 08:44:45;;;;;;;3.47;0.20;;;;;;;17.71;32.42;102632.47;4914674;28;20055;-68
2023/10/08 08:47:17;;;;;;;2.03;0.20;;;;;;;16.89;34.05;102628.75;4922127;28;20500;-68
2023/10/08 08:49:43;;;;;;;2.92;0.30;;;;;;;17.05;33.86;102627.25;4916552;28;20050;-68
2023/10/08 08:52:09;;;;;;;2.05;0.20;;;;;;;16.90;33.92;102628.72;4911015;28;20035;-68
2023/10/08 08:54:36;;;;;;;3.95;0.20;;;;;;;17.27;32.70;102626.38;4913890;28;20407;-68
2023/10/08 08:57:04;;;;;;;5.28;0.22;;;;;;;17.36;32.56;102639.22;4914702;28;20067;-68
2023/10/08 08:59:31;;;;;;;2.75;0.10;;;;;;;17.51;33.49;102632.47;4912514;28;20054;-68
2023/10/08 09:01:59;;;;;;;3.95;0.55;;;;;;;17.63;33.20;102646.03;4928418;28;20445;-69
2023/10/08 09:04:32;;;;;;;1.40;0.30;;;;;;;17.71;34.58;102658.06;4915662;28;20041;-69
2023/10/08 09:07:04;;;;;;;3.08;0.13;;;;;;;17.50;33.17;102665.97;4920596;28;20084;-68
2023/10/08 09:09:41;;;;;;;0.57;0.10;;;;;;;17.34;33.30;102671.00;4913468;28;20428;-68
2023/10/08 09:12:10;;;;;;;2.70;0.43;;;;;;;16.52;34.93;102672.38;4920140;28;20046;-68
2023/10/08 09:14:37;;;;;;;2.95;0.20;;;;;;;16.88;35.06;102678.06;4927395;28;20043;-67
2023/10/08 09:17:05;;;;;;;6.97;0.20;;;;;;;16.96;34.40;102683.09;4922303;28;20645;-67
2023/10/08 09:19:36;;;;;;;3.65;0.13;;;;;;;16.48;34.67;102673.41;4924391;28;20478;-68
2023/10/08 09:22:05;;;;;;;0.73;0.20;;;;;;;16.14;35.00;102635.06;4919847;28;20232;-68
2023/10/08 09:24:36;;;;;;;2.53;0.50;;;;;;;15.92;35.22;102646.31;4916860;28;20073;-68
2023/10/08 09:27:03;;;;;;;5.03;0.52;;;;;;;15.65;35.99;102649.91;4920587;28;20095;-69
2023/10/08 09:29:29;;;;;;;6.80;0.28;;;;;;;15.49;35.90;102653.03;4915019;28;20046;-69
2023/10/08 09:31:59;;;;;;;0.75;0.10;;;;;;;15.49;35.70;102670.63;4901131;29;20046;-68
2023/10/08 09:34:31;;;;;;;1.67;0.20;;;;;;;15.21;36.08;102681.13;4910035;28;20043;-69
2023/10/08 09:37:03;;;;;;;0.65;0.20;;;;;;;15.15;36.66;102680.44;4913979;28;20494;-69
2023/10/08 09:39:33;;;;;;;2.20;0.40;;;;;;;15.08;36.66;102670.09;4924622;28;20585;-68
2023/10/08 09:42:06;;;;;;;3.13;0.20;;;;;;;15.43;37.09;102674.31;4916006;28;20061;-70
2023/10/08 09:44:32;;;;;;;3.20;0.10;;;;;;;15.13;36.45;102674.34;4911663;28;20060;-70
2023/10/08 09:47:04;;;;;;;1.52;0.25;;;;;;;14.62;37.31;102651.28;4920336;28;20506;-69
2023/10/08 09:49:31;;;;;;;;;;;;;;;14.06;37.35;102654.56;4911716;28;20091;-69
2023/10/08 09:52:01;;;;;;;2.03;0.10;;;;;;;13.98;38.27;102632.00;4906309;28;20033;-69
2023/10/08 09:54:48;;;;;;;3.97;0.20;;;;;;;13.55;39.01;102606.81;4924111;28;20039;-69
2023/10/08 09:57:19;;;;;;;3.30;0.32;;;;;;;12.99;40.32;102597.63;4915729;28;20031;-69
2023/10/08 09:59:47;;;;;;;1.63;0.30;;;;;;;13.07;40.46;102661.31;4912038;28;21695;-68
2023/10/08 10:02:12;;;;;;;2.85;0.10;;;;;;;13.07;40.06;102737.44;4918187;28;20110;-67
2023/10/08 10:04:44;;;;;;;0.93;0.10;;;;;;;13.31;40.28;102766.69;4909526;28;20050;-64
2023/10/08 10:07:12;;;;;;;;;;;;;;;13.27;39.59;102765.91;4917124;28;20035;-67
2023/10/08 10:09:39;;;;;;;1.85;0.15;;;;;;;13.44;40.31;102730.53;4912391;28;19923;-68
2023/10/08 10:12:09;;;;;;;3.05;0.20;;;;;;;13.58;41.01;102701.34;4914690;28;20039;-70
2023/10/08 10:14:46;;;;;;;0.63;0.10;;;;;;;13.78;40.03;102693.81;4910472;28;20059;-66
2023/10/08 10:17:20;;;;;;;3.97;0.30;;;;;;;14.14;39.43;102646.47;4927986;28;20094;-67
2023/10/08 10:19:56;;;;;;;3.72;0.20;;;;;;;14.31;37.55;102646.88;4911270;28;20314;-68
2023/10/08 10:22:30;;;;;;;5.75;0.82;;;;;;;14.10;36.88;102663.25;4915547;28;20054;-68
2023/10/08 10:25:03;;;;;;;2.58;0.20;;;;;;;14.07;36.98;102687.81;4928904;28;20501;-70
2023/10/08 10:27:29;;;;;;;3.63;0.15;;;;;;;14.48;36.55;102692.94;4911202;28;20483;-67
2023/10/08 10:30:08;;;;;;;3.25;0.30;;;;;;;14.95;35.18;102695.97;4914652;28;20142;-70
2023/10/08 10:32:35;;;;;;;2.25;0.10;;;;;;;15.35;34.63;102710.59;4896782;28;20521;-68
2023/10/08 10:35:03;;;;;;;3.08;0.40;;;;;;;15.22;33.66;102730.31;4918176;28;20414;-68
2023/10/08 10:37:40;;;;;;;1.00;0.15;;;;;;;14.66;34.59;102741.56;4925896;28;20043;-68
2023/10/08 10:40:10;;;;;;;2.33;0.20;;;;;;;14.50;35.60;102751.59;4918551;28;20048;-68
2023/10/08 10:42:42;;;;;;;2.55;0.20;;;;;;;14.42;34.07;102749.19;4913692;28;20675;-67
2023/10/08 10:56:29;;;;;;;5.88;0.60;;;;;;;14.60;34.22;102711.00;4913645;28;20055;-68
2023/10/08 10:58:59;;;;;;;3.63;0.20;;;;;;;14.65;33.69;102695.06;4920235;28;20050;-68
2023/10/08 11:01:44;;;;;;;1.77;0.32;;;;;;;14.65;33.76;102693.31;4912992;28;20031;-68
2023/10/08 11:04:15;;;;;;;3.50;0.35;;;;;;;14.70;33.46;102686.16;4916300;28;20565;-70
2023/10/08 11:06:44;;;;;;;1.08;0.10;;;;;;;14.32;33.77;102671.38;4911612;28;20441;-69
2023/10/08 11:09:15;;;;;;;2.60;0.17;;;;;;;14.60;34.77;102683.81;4916508;28;20683;-68
2023/10/08 11:11:44;;;;;;;1.52;0.50;;;;;;;14.69;33.16;102687.06;4911261;28;20031;-69
2023/10/08 11:14:18;;;;;;;2.22;0.22;;;;;;;14.52;33.78;102686.66;4916943;28;20051;-72
2023/10/08 11:16:45;;;;;;;1.83;0.20;;;;;;;14.40;33.99;102668.56;4910869;28;20221;-70
2023/10/08 11:19:11;;;;;;;1.10;0.10;;;;;;;14.33;34.24;102676.63;4916151;28;20043;-70
2023/10/08 11:21:55;;;;;;;1.00;0.15;;;;;;;14.07;35.08;102684.34;4911399;28;20031;-70
2023/10/08 11:24:33;;;;;;;1.40;0.20;;;;;;;14.08;34.75;102684.31;4932193;28;20070;-68
2023/10/08 11:27:16;;;;;;;1.92;0.47;;;;;;;14.22;33.98;102662.91;4917234;28;20134;-71
2023/10/08 11:29:44;;;;;;;0.63;0.10;;;;;;;14.11;34.37;102654.44;4913398;28;20058;-74
2023/10/08 11:32:12;;;;;;;3.85;0.20;;;;;;;14.35;34.23;102638.00;4922507;28;20031;-71
2023/10/08 11:34:40;;;;;;;6.68;0.20;;;;;;;13.87;34.00;102620.00;4914975;28;20159;-69
2023/10/08 11:37:19;;;;;;;1.02;0.10;;;;;;;13.80;35.35;102613.19;4910857;29;20035;-71
2023/10/08 11:39:49;;;;;;;1.50;0.10;;;;;;;13.94;35.01;102615.44;4929452;28;20175;-71
2023/10/08 11:44:59;;;;;;;8.10;0.17;;;;;;;14.67;33.25;102617.81;4916988;28;20101;-68
2023/10/08 11:47:31;;;;;;;7.57;0.30;;;;;;;15.07;32.91;102635.03;4919318;28;20513;-72
2023/10/08 11:50:09;;;;;;;;;;;;;;;15.16;31.94;102647.03;4916273;28;20720;-70
2023/10/08 11:52:41;;;;;;;2.15;0.52;;;;;;;15.10;32.85;102652.50;4914334;28;19919;-70
2023/10/08 11:55:08;;;;;;;2.28;0.10;;;;;;;15.32;32.83;102657.97;4921581;28;20051;-70
2023/10/08 11:57:35;;;;;;;1.65;0.15;;;;;;;16.15;32.39;102666.66;4923617;28;20539;-71
2023/10/08 12:00:16;;;;;;;0.50;0.10;;;;;;;16.15;32.43;102666.66;4915832;28;20087;-69
2023/10/08 12:02:43;;;;;;;2.25;0.10;;;;;;;16.94;30.45;102655.88;4913286;28;20054;-69
2023/10/08 12:05:18;;;;;;;1.90;0.10;;;;;;;16.76;29.28;102650.38;4918499;28;20047;-67
2023/10/08 12:07:57;;;;;;;1.10;0.10;;;;;;;16.51;29.76;102652.16;4932015;28;20075;-68
2023/10/08 12:10:23;;;;;;;0.50;0.10;;;;;;;16.67;31.65;102661.25;4921696;28;20043;-69
2023/10/08 12:12:53;;;;;;;1.70;0.10;;;;;;;16.76;30.07;102668.84;4914487;28;20063;-68
2023/10/08 12:15:22;;;;;;;1.30;0.20;;;;;;;16.26;30.59;102681.22;4917812;28;20055;-69
2023/10/08 12:20:37;;;;;;;4.65;0.40;;;;;;;15.69;31.69;102680.53;4914117;28;20047;-68
2023/10/08 12:23:04;;;;;;;2.78;0.10;;;;;;;15.88;31.05;102678.97;4924004;28;20398;-71
2023/10/08 12:25:32;;;;;;;3.20;0.20;;;;;;;15.87;31.67;102666.72;4932680;28;20451;-70
2023/10/08 12:28:04;;;;;;;3.05;0.30;;;;;;;15.96;31.38;102671.66;4913236;28;20035;-70
2023/10/08 12:30:31;;;;;;;1.30;0.20;;;;;;;16.05;30.24;102674.94;4920316;28;20036;-71
2023/10/08 12:33:00;;;;;;;1.75;0.15;;;;;;;16.14;30.34;102672.84;4932667;28;20031;-71
2023/10/08 12:35:29;;;;;;;2.80;0.10;;;;;;;15.94;30.58;102673.50;4918946;28;20039;-71
2023/10/08 12:37:55;;;;;;;1.05;0.20;;;;;;;15.34;31.41;102650.91;4915795;28;20090;-70
2023/10/08 12:40:23;;;;;;;1.77;0.10;;;;;;;15.26;31.91;102652.91;4913858;28;20047;-70
2023/10/08 12:42:51;;;;;;;1.48;0.20;;;;;;;15.54;31.87;102644.97;4915685;28;20540;-71
2023/10/08 12:45:20;;;;;;;2.53;0.20;;;;;;;16.05;31.53;102672.31;4919794;28;20039;-70
2023/10/08 12:47:50;;;;;;;1.20;0.20;;;;;;;15.60;31.89;102673.78;4918784;28;20058;-71
2023/10/08 12:50:29;;;;;;;3.42;0.75;;;;;;;15.38;32.56;102669.19;4935052;28;20043;-70
2023/10/08 12:52:57;;;;;;;0.82;0.10;;;;;;;15.45;31.87;102672.50;4928771;28;21758;-71
2023/10/08 12:55:25;;;;;;;1.42;0.10;;;;;;;15.50;32.21;102673.19;4934845;28;20218;-70
2023/10/08 12:58:05;;;;;;;1.52;0.20;;;;;;;15.52;32.64;102666.09;4913195;28;20050;-70
2023/10/08 13:00:32;;;;;;;0.52;0.10;;;;;;;15.40;32.21;102655.97;4917256;28;20706;-70